Petange, Luxembourg
Current Conditions -  °F | °C
As of 3:50 PM on Tuesday 21 Oct 2014 (Local Time) from ELLX Reporting Station
Rain Showers Rain Showers  
Wind Chill: 12°   Ceiling: 1200
Heat Index: 12°   Visibility: 6mi
Dew Point: 11°   Wind: 18mph
Humidity: 94%   Direction: 220°SW
Pressure: 29.65"   Gusts: NA
Location:  49.56°N, 5.88°E
Report Text: ELLX 211350Z 22016KT 180V270 9999 -SHRA FEW009 BKN012 12/11 Q1004 NOSIG
Loading
Personal Weather Stations






























Interactive Weather Map
Tropical Storm Tracking
New forecast layout! Learn more

10-Day Weather Forecast

Advertisements
Track Severe Weather on mobile